createdAt,value
2023-01-29T00:00:06.029Z,0
2023-01-29T00:30:22.071Z,0
2023-01-29T01:00:06.789Z,-0.1
2023-01-29T01:30:00.368Z,-0.6
2023-01-29T02:00:00.424Z,-0.2
2023-01-29T02:30:01.191Z,-0.6
2023-01-29T03:00:00.303Z,-0.6
2023-01-29T03:30:03.620Z,-0.6
2023-01-29T04:00:20.329Z,-0.5
2023-01-29T04:30:27.267Z,-0.7
2023-01-29T05:00:13.546Z,-0.4
2023-01-29T05:30:13.520Z,-0.9
2023-01-29T06:00:20.653Z,-0.8
2023-01-29T06:30:06.388Z,-1.3
2023-01-29T07:00:06.592Z,-1
2023-01-29T07:30:14.887Z,-0.8
2023-01-29T08:00:14.407Z,-0.8
2023-01-29T08:30:16.955Z,-1.8
2023-01-29T09:00:16.175Z,-0.8
2023-01-29T09:30:07.428Z,-1
2023-01-29T10:00:08.728Z,-1
2023-01-29T10:30:01.043Z,-0.5
2023-01-29T11:00:15.605Z,0.3
2023-01-29T11:30:08.511Z,1.1
2023-01-29T12:00:23.157Z,2.2
2023-01-29T12:30:23.154Z,3.2
2023-01-29T13:30:25.756Z,3.8
2023-01-29T14:00:11.107Z,1.1
2023-01-29T14:30:03.169Z,3.5
2023-01-29T15:00:18.821Z,2.3
2023-01-29T15:30:11.794Z,1.6
2023-01-29T16:00:11.155Z,0.3
2023-01-29T16:30:03.625Z,-0.5
2023-01-29T17:00:05.690Z,-1.1
2023-01-29T18:00:24.037Z,-1.6
2023-01-29T18:30:23.781Z,-2.4
2023-01-29T19:00:15.423Z,-2.7
2023-01-29T19:30:01.351Z,-3.1
2023-01-29T20:00:22.975Z,-3.4
2023-01-29T20:30:08.676Z,-3.3
2023-01-29T21:00:01.311Z,-3.1
2023-01-29T21:30:00.930Z,-3.5
2023-01-29T22:00:22.873Z,-3.6
2023-01-29T22:30:17.823Z,-3
2023-01-29T23:00:19.163Z,-2.7
2023-01-29T23:30:18.786Z,-2.9
